createdAt,value
2018-12-24T00:00:38.028Z,53.10
2018-12-24T00:03:07.007Z,53.20
2018-12-24T00:05:36.096Z,53.20
2018-12-24T00:08:05.145Z,53.20
2018-12-24T00:10:34.067Z,53.30
2018-12-24T00:13:03.012Z,53.30
2018-12-24T00:15:32.028Z,53.30
2018-12-24T00:18:01.006Z,53.40
2018-12-24T00:20:30.006Z,53.40
2018-12-24T00:22:58.971Z,53.40
2018-12-24T00:25:27.967Z,53.50
2018-12-24T00:27:56.932Z,53.50
2018-12-24T00:30:25.907Z,53.50
2018-12-24T00:32:54.885Z,53.50
2018-12-24T00:35:23.848Z,53.60
2018-12-24T00:37:52.826Z,53.60
2018-12-24T00:40:21.880Z,53.60
2018-12-24T00:42:50.880Z,53.60
2018-12-24T00:45:19.837Z,53.60
2018-12-24T00:47:48.996Z,53.70
2018-12-24T00:50:17.964Z,53.80
2018-12-24T00:52:46.965Z,53.80
2018-12-24T00:55:15.945Z,53.90
2018-12-24T00:57:47.907Z,53.90
2018-12-24T01:00:16.965Z,53.90
2018-12-24T01:02:45.960Z,54.00
2018-12-24T01:05:14.937Z,54.00
2018-12-24T01:07:43.898Z,54.00
2018-12-24T01:10:12.978Z,54.00
2018-12-24T01:12:42.064Z,54.10
2018-12-24T01:15:10.989Z,54.10
2018-12-24T01:17:39.973Z,54.20
2018-12-24T01:20:08.925Z,54.20
2018-12-24T01:22:37.912Z,54.20
2018-12-24T01:25:06.844Z,54.20
2018-12-24T01:27:35.803Z,54.20
2018-12-24T01:30:04.879Z,54.30
2018-12-24T01:32:33.876Z,54.20
2018-12-24T01:35:02.853Z,54.30
2018-12-24T01:37:31.827Z,54.30
2018-12-24T01:40:00.810Z,54.30
2018-12-24T01:42:33.449Z,54.40
2018-12-24T01:45:00.390Z,54.30
2018-12-24T01:47:29.376Z,54.30
2018-12-24T01:49:58.357Z,54.30
2018-12-24T01:52:27.347Z,54.40
2018-12-24T01:54:56.334Z,54.40
2018-12-24T01:57:25.303Z,54.40
2018-12-24T01:59:54.272Z,54.40
2018-12-24T02:02:23.267Z,54.40
2018-12-24T02:04:52.246Z,54.40
2018-12-24T02:07:21.229Z,54.40
2018-12-24T02:09:50.212Z,54.40
2018-12-24T02:12:19.192Z,54.50
2018-12-24T02:14:48.171Z,54.50
2018-12-24T02:17:17.174Z,54.50
2018-12-24T02:19:46.127Z,54.60
2018-12-24T02:22:15.085Z,54.60
2018-12-24T02:24:44.090Z,54.60
2018-12-24T02:27:13.068Z,54.80
2018-12-24T02:29:42.066Z,54.70
2018-12-24T02:32:11.128Z,54.70
2018-12-24T02:34:40.094Z,54.70
2018-12-24T02:37:09.154Z,54.70
2018-12-24T02:39:38.131Z,54.80
2018-12-24T02:42:07.109Z,54.80
2018-12-24T02:44:36.070Z,54.80
2018-12-24T02:47:05.025Z,55.50
2018-12-24T02:49:34.003Z,54.80
2018-12-24T02:52:02.976Z,54.80
2018-12-24T02:54:31.960Z,54.90
2018-12-24T02:57:00.918Z,55.00
2018-12-24T02:59:29.910Z,54.90
2018-12-24T03:02:00.459Z,55.00
2018-12-24T03:04:29.434Z,55.00
2018-12-24T03:06:58.436Z,55.00
2018-12-24T03:09:27.411Z,55.00
2018-12-24T03:11:56.460Z,55.00
2018-12-24T03:14:25.454Z,55.00
2018-12-24T03:16:54.535Z,55.20
2018-12-24T03:19:23.583Z,55.10
2018-12-24T03:21:52.560Z,55.10
2018-12-24T03:24:21.806Z,55.10
2018-12-24T03:26:50.915Z,55.20
2018-12-24T03:29:19.926Z,55.20
2018-12-24T03:31:48.865Z,55.20
2018-12-24T03:34:17.916Z,55.20
2018-12-24T03:36:46.851Z,55.20
2018-12-24T03:39:15.792Z,55.30
2018-12-24T03:41:44.770Z,55.20
2018-12-24T03:44:13.750Z,55.30
2018-12-24T03:46:42.638Z,55.30
2018-12-24T03:49:11.637Z,55.30
2018-12-24T03:51:40.561Z,55.20
2018-12-24T03:54:09.539Z,55.30
2018-12-24T03:56:38.550Z,55.30
2018-12-24T03:59:07.549Z,55.30
2018-12-24T04:01:36.533Z,55.40
2018-12-24T04:04:05.514Z,55.40
2018-12-24T04:06:34.543Z,55.40
2018-12-24T04:09:04.457Z,55.40
2018-12-24T04:11:33.470Z,55.50
2018-12-24T04:14:02.420Z,55.50
2018-12-24T04:16:31.407Z,55.50
2018-12-24T04:19:00.379Z,55.50
2018-12-24T04:21:29.352Z,55.90
2018-12-24T04:23:58.345Z,55.50
2018-12-24T04:26:27.323Z,55.50
2018-12-24T04:28:56.313Z,55.50
2018-12-24T04:31:25.274Z,55.50
2018-12-24T04:33:54.442Z,55.50
2018-12-24T04:36:23.409Z,55.50
2018-12-24T04:38:52.377Z,55.50
2018-12-24T04:41:21.343Z,55.50
2018-12-24T04:43:50.404Z,55.50
2018-12-24T04:46:19.392Z,55.50
2018-12-24T04:48:48.415Z,55.50
2018-12-24T04:51:17.395Z,55.60
2018-12-24T04:53:46.366Z,55.60
2018-12-24T04:56:15.324Z,55.60
2018-12-24T04:58:44.324Z,55.60
2018-12-24T05:01:13.331Z,55.90
2018-12-24T05:03:42.290Z,55.80
2018-12-24T05:06:11.254Z,55.70
2018-12-24T05:08:40.332Z,55.70
2018-12-24T05:11:09.312Z,55.80
2018-12-24T05:13:40.995Z,55.80
2018-12-24T05:16:08.935Z,55.80
2018-12-24T05:18:37.906Z,56.50
2018-12-24T05:21:06.885Z,55.90
2018-12-24T05:23:35.884Z,55.90
2018-12-24T05:26:04.849Z,55.80
2018-12-24T05:28:33.923Z,55.80
2018-12-24T05:31:02.889Z,55.80
2018-12-24T05:33:31.869Z,55.80
2018-12-24T05:36:00.802Z,55.80
2018-12-24T05:38:29.755Z,56.00
2018-12-24T05:40:58.670Z,55.70
2018-12-24T05:43:27.671Z,55.70
2018-12-24T05:45:56.675Z,55.60
2018-12-24T05:48:25.652Z,55.50
2018-12-24T05:50:54.640Z,55.40
2018-12-24T05:53:23.617Z,55.40
2018-12-24T05:55:52.569Z,55.40
2018-12-24T05:58:21.544Z,55.30
2018-12-24T06:00:50.539Z,55.20
2018-12-24T06:03:19.526Z,55.20
2018-12-24T06:05:48.478Z,55.20
2018-12-24T06:08:17.423Z,55.20
2018-12-24T06:10:46.415Z,55.10
2018-12-24T06:13:15.412Z,55.10
2018-12-24T06:15:44.393Z,55.10
2018-12-24T06:18:13.345Z,55.50
2018-12-24T06:20:42.360Z,55.40
2018-12-24T06:23:11.341Z,55.30
2018-12-24T06:25:40.336Z,55.50
2018-12-24T06:28:09.340Z,55.60
2018-12-24T06:30:38.394Z,55.70
2018-12-24T06:33:07.358Z,55.60
2018-12-24T06:35:36.284Z,55.60
2018-12-24T06:38:05.245Z,55.70
2018-12-24T06:40:34.225Z,55.70
2018-12-24T06:43:03.216Z,55.70
2018-12-24T06:45:36.214Z,55.70
2018-12-24T06:48:05.192Z,55.70
2018-12-24T06:50:34.188Z,55.80
2018-12-24T06:53:03.155Z,55.90
2018-12-24T06:55:32.341Z,55.90
2018-12-24T06:58:01.328Z,56.00
2018-12-24T07:00:30.395Z,56.10
2018-12-24T07:02:59.343Z,56.20
2018-12-24T07:05:28.315Z,56.30
2018-12-24T07:07:57.361Z,56.30
2018-12-24T07:10:26.375Z,56.30
2018-12-24T07:12:55.420Z,56.40
2018-12-24T07:15:24.381Z,56.30
2018-12-24T07:17:53.327Z,56.50
2018-12-24T07:20:22.261Z,56.30
2018-12-24T07:22:51.331Z,56.20
2018-12-24T07:25:20.364Z,56.10
2018-12-24T07:27:49.359Z,56.20
2018-12-24T07:30:18.287Z,56.20
2018-12-24T07:32:47.308Z,56.20
2018-12-24T07:35:16.437Z,56.20
2018-12-24T07:37:45.357Z,56.20
2018-12-24T07:40:14.406Z,56.20
2018-12-24T07:42:43.369Z,56.20
2018-12-24T07:45:13.165Z,56.20
2018-12-24T07:47:42.143Z,56.30
2018-12-24T07:50:11.104Z,57.10
2018-12-24T07:52:40.103Z,56.50
2018-12-24T07:55:09.056Z,56.40
2018-12-24T07:57:37.999Z,56.40
2018-12-24T08:00:08.067Z,56.40
2018-12-24T08:02:37.051Z,56.30
2018-12-24T08:05:05.980Z,56.30
2018-12-24T08:07:34.947Z,56.40
2018-12-24T08:10:04.073Z,56.30
2018-12-24T08:12:33.033Z,56.30
2018-12-24T08:15:01.985Z,56.30
2018-12-24T08:17:30.922Z,56.30
2018-12-24T08:19:59.887Z,56.30
2018-12-24T08:22:28.859Z,56.20
2018-12-24T08:24:57.836Z,56.30
2018-12-24T08:27:26.818Z,56.20
2018-12-24T08:29:55.727Z,56.20
2018-12-24T08:32:24.703Z,56.30
2018-12-24T08:34:53.689Z,56.20
2018-12-24T08:37:22.607Z,56.90
2018-12-24T08:39:51.593Z,56.20
2018-12-24T08:42:20.664Z,56.20
2018-12-24T08:44:49.655Z,56.20
2018-12-24T08:47:18.629Z,56.20
2018-12-24T08:49:47.607Z,56.10
2018-12-24T08:52:16.586Z,56.20
2018-12-24T08:54:45.589Z,56.20
2018-12-24T08:57:14.615Z,56.20
2018-12-24T08:59:43.555Z,56.30
2018-12-24T09:02:12.485Z,56.30
2018-12-24T09:04:41.462Z,57.00
2018-12-24T09:07:10.425Z,56.60
2018-12-24T09:09:39.428Z,56.70
2018-12-24T09:12:08.419Z,56.70
2018-12-24T09:14:37.396Z,56.80
2018-12-24T09:17:06.393Z,56.80
2018-12-24T09:19:35.363Z,56.80
2018-12-24T09:22:04.326Z,56.50
2018-12-24T09:24:33.301Z,56.30
2018-12-24T09:27:02.239Z,56.10
2018-12-24T09:29:31.199Z,56.00
2018-12-24T09:32:00.132Z,55.90
2018-12-24T09:34:29.069Z,55.70
2018-12-24T09:36:58.054Z,55.60
2018-12-24T09:39:27.006Z,55.50
2018-12-24T09:41:56.005Z,55.40
2018-12-24T09:44:25.003Z,55.30
2018-12-24T09:46:53.961Z,55.20
2018-12-24T09:49:22.933Z,55.10
2018-12-24T09:51:51.855Z,55.10
2018-12-24T09:54:20.856Z,54.90
2018-12-24T09:56:49.789Z,54.00
2018-12-24T09:59:18.740Z,53.30
2018-12-24T10:01:47.706Z,53.20
2018-12-24T10:04:23.863Z,53.50
2018-12-24T10:06:52.858Z,53.80
2018-12-24T10:09:23.299Z,53.90
2018-12-24T10:11:52.283Z,54.10
2018-12-24T10:14:21.321Z,54.20
2018-12-24T10:16:50.279Z,54.20
2018-12-24T10:19:19.191Z,53.80
2018-12-24T10:21:48.129Z,52.30
2018-12-24T10:24:17.116Z,50.70
2018-12-24T10:26:46.097Z,49.20
2018-12-24T10:29:15.075Z,47.90
2018-12-24T10:31:44.175Z,46.60
2018-12-24T10:34:13.165Z,46.00
2018-12-24T10:36:42.091Z,45.30
2018-12-24T10:39:11.047Z,44.40
2018-12-24T10:41:40.017Z,43.80
2018-12-24T10:44:09.003Z,43.40
2018-12-24T10:46:38.027Z,43.20
2018-12-24T10:49:07.025Z,42.90
2018-12-24T10:51:35.999Z,42.50
2018-12-24T10:54:05.008Z,42.10
2018-12-24T10:56:33.973Z,41.90
2018-12-24T10:59:02.936Z,41.80
2018-12-24T11:01:31.946Z,42.70
2018-12-24T11:04:00.916Z,43.60
2018-12-24T11:06:29.899Z,44.60
2018-12-24T11:08:58.857Z,45.60
2018-12-24T11:11:29.246Z,46.70
2018-12-24T11:13:58.224Z,47.90
2018-12-24T11:16:27.264Z,48.50
2018-12-24T11:18:56.206Z,49.10
2018-12-24T11:21:25.181Z,50.00
2018-12-24T11:23:54.144Z,49.60
2018-12-24T11:26:23.155Z,49.80
2018-12-24T11:28:52.075Z,50.20
2018-12-24T11:31:20.996Z,50.50
2018-12-24T11:33:49.969Z,50.60
2018-12-24T11:36:19.053Z,50.60
2018-12-24T11:38:48.030Z,50.60
2018-12-24T11:41:17.000Z,50.50
2018-12-24T11:43:45.962Z,50.50
2018-12-24T11:46:14.946Z,50.40
2018-12-24T11:48:44.051Z,50.30
2018-12-24T11:51:13.058Z,50.20
2018-12-24T11:53:42.031Z,50.20
2018-12-24T11:56:11.088Z,50.00
2018-12-24T11:58:40.061Z,49.40
2018-12-24T12:01:09.043Z,49.30
2018-12-24T12:03:38.015Z,49.30
2018-12-24T12:06:07.012Z,49.40
2018-12-24T12:08:35.965Z,49.80
2018-12-24T12:11:04.955Z,49.70
2018-12-24T12:13:33.892Z,49.70
2018-12-24T12:16:02.873Z,49.70
2018-12-24T12:18:31.845Z,49.60
2018-12-24T12:21:00.854Z,49.40
2018-12-24T12:23:29.794Z,49.00
2018-12-24T12:25:58.877Z,48.50
2018-12-24T12:28:27.849Z,48.10
2018-12-24T12:30:56.851Z,47.40
2018-12-24T12:33:25.841Z,46.90
2018-12-24T12:35:54.821Z,46.40
2018-12-24T12:38:29.719Z,46.00
2018-12-24T12:40:54.487Z,45.70
2018-12-24T12:43:23.476Z,45.60
2018-12-24T12:45:52.549Z,46.30
2018-12-24T12:48:21.516Z,46.70
2018-12-24T12:50:50.499Z,46.90
2018-12-24T12:53:19.488Z,47.60
2018-12-24T12:55:48.469Z,47.10
2018-12-24T12:58:17.529Z,47.70
2018-12-24T13:00:46.524Z,48.50
2018-12-24T13:03:15.588Z,49.10
2018-12-24T13:05:44.664Z,49.50
2018-12-24T13:08:13.672Z,49.90
2018-12-24T13:10:42.625Z,50.20
2018-12-24T13:13:11.615Z,50.40
2018-12-24T13:15:40.589Z,50.70
2018-12-24T13:18:09.559Z,50.40
2018-12-24T13:20:38.536Z,51.00
2018-12-24T13:23:07.510Z,51.20
2018-12-24T13:25:36.495Z,51.30
2018-12-24T13:28:05.545Z,51.40
2018-12-24T13:30:34.573Z,51.50
2018-12-24T13:33:03.565Z,51.50
2018-12-24T13:35:32.554Z,51.60
2018-12-24T13:38:01.523Z,51.70
2018-12-24T13:40:30.500Z,51.50
2018-12-24T13:42:59.512Z,51.40
2018-12-24T13:45:28.481Z,51.40
2018-12-24T13:47:57.439Z,51.50
2018-12-24T13:50:26.375Z,51.50
2018-12-24T13:52:55.348Z,51.60
2018-12-24T13:55:24.327Z,51.70
2018-12-24T13:57:53.321Z,51.70
2018-12-24T14:00:22.299Z,51.90
2018-12-24T14:02:51.278Z,51.90
2018-12-24T14:05:20.199Z,52.00
2018-12-24T14:07:49.120Z,52.00
2018-12-24T14:10:18.107Z,52.10
2018-12-24T14:12:47.069Z,52.10
2018-12-24T14:15:16.048Z,52.10
2018-12-24T14:17:45.020Z,52.20
2018-12-24T14:20:14.011Z,52.20
2018-12-24T14:22:43.031Z,52.20
2018-12-24T14:25:11.961Z,52.20
2018-12-24T14:27:40.882Z,52.20
2018-12-24T14:30:11.520Z,52.80
2018-12-24T14:32:41.885Z,52.30
2018-12-24T14:35:10.841Z,52.30
2018-12-24T14:37:39.821Z,52.40
2018-12-24T14:40:08.816Z,52.30
2018-12-24T14:42:37.801Z,52.40
2018-12-24T14:45:07.636Z,52.40
2018-12-24T14:47:36.605Z,52.40
2018-12-24T14:50:06.028Z,52.40
2018-12-24T14:52:35.029Z,52.50
2018-12-24T14:55:04.008Z,52.40
2018-12-24T14:57:33.008Z,52.50
2018-12-24T15:00:01.978Z,52.50
2018-12-24T15:02:30.939Z,52.50
2018-12-24T15:04:59.874Z,52.50
2018-12-24T15:07:28.860Z,52.40
2018-12-24T15:09:57.917Z,52.50
2018-12-24T15:12:26.922Z,52.60
2018-12-24T15:14:56.019Z,52.70
2018-12-24T15:17:25.208Z,52.70
2018-12-24T15:19:54.198Z,52.70
2018-12-24T15:22:23.174Z,52.80
2018-12-24T15:24:52.115Z,52.90
2018-12-24T15:27:21.007Z,52.90
2018-12-24T15:29:49.929Z,52.90
2018-12-24T15:32:18.926Z,52.90
2018-12-24T15:34:47.895Z,53.00
2018-12-24T15:37:16.853Z,53.00
2018-12-24T15:39:45.825Z,53.00
2018-12-24T15:42:14.824Z,53.00
2018-12-24T15:44:43.815Z,53.00
2018-12-24T15:47:12.895Z,53.00
2018-12-24T15:49:41.967Z,53.00
2018-12-24T15:52:10.964Z,53.00
2018-12-24T15:54:40.031Z,53.00
2018-12-24T15:57:08.976Z,53.00
2018-12-24T15:59:37.917Z,53.00
2018-12-24T16:02:06.899Z,53.00
2018-12-24T16:04:35.861Z,53.10
2018-12-24T16:07:04.932Z,53.10
2018-12-24T16:09:33.983Z,53.10
2018-12-24T16:12:02.990Z,53.00
2018-12-24T16:14:31.968Z,53.00
2018-12-24T16:17:00.941Z,53.00
2018-12-24T16:19:29.937Z,53.00
2018-12-24T16:21:58.977Z,52.90
2018-12-24T16:24:28.048Z,52.80
2018-12-24T16:26:57.028Z,52.80
2018-12-24T16:29:26.044Z,52.80
2018-12-24T16:31:55.020Z,52.70
2018-12-24T16:34:24.058Z,52.70
2018-12-24T16:36:53.010Z,52.70
2018-12-24T16:39:22.199Z,52.70
2018-12-24T16:41:51.192Z,52.70
2018-12-24T16:44:20.150Z,52.70
2018-12-24T16:46:49.143Z,52.90
2018-12-24T16:49:18.132Z,52.70
2018-12-24T16:51:47.101Z,52.70
2018-12-24T16:54:16.076Z,52.70
2018-12-24T16:56:44.993Z,52.70
2018-12-24T16:59:13.954Z,52.80
2018-12-24T17:01:42.941Z,52.80
2018-12-24T17:04:12.757Z,52.90
2018-12-24T17:06:41.719Z,52.80
2018-12-24T17:09:10.692Z,52.90
2018-12-24T17:11:39.691Z,52.90
2018-12-24T17:14:08.661Z,52.90
2018-12-24T17:16:37.719Z,52.90
2018-12-24T17:19:06.708Z,52.90
2018-12-24T17:21:35.810Z,52.90
2018-12-24T17:24:04.782Z,52.50
2018-12-24T17:26:33.763Z,52.90
2018-12-24T17:29:02.743Z,53.70
2018-12-24T17:31:31.739Z,53.00
2018-12-24T17:34:00.702Z,53.00
2018-12-24T17:36:29.682Z,53.00
2018-12-24T17:38:58.671Z,53.00
2018-12-24T17:41:27.644Z,53.10
2018-12-24T17:43:56.621Z,53.10
2018-12-24T17:46:25.598Z,53.10
2018-12-24T17:48:54.672Z,53.10
2018-12-24T17:51:24.951Z,53.10
2018-12-24T17:53:54.002Z,53.20
2018-12-24T17:56:22.935Z,53.20
2018-12-24T17:58:51.885Z,53.20
2018-12-24T18:01:20.867Z,53.20
2018-12-24T18:03:49.867Z,53.20
2018-12-24T18:06:18.805Z,53.20
2018-12-24T18:08:47.748Z,53.20
2018-12-24T18:11:16.648Z,53.30
2018-12-24T18:13:45.527Z,53.30
2018-12-24T18:16:14.468Z,53.30
2018-12-24T18:18:43.444Z,53.30
2018-12-24T18:21:12.489Z,53.40
2018-12-24T18:23:41.471Z,53.40
2018-12-24T18:26:10.409Z,53.50
2018-12-24T18:28:39.338Z,53.40
2018-12-24T18:31:08.322Z,53.50
2018-12-24T18:33:37.740Z,53.50
2018-12-24T18:36:06.709Z,53.40
2018-12-24T18:38:35.680Z,53.40
2018-12-24T18:41:04.684Z,53.50
2018-12-24T18:43:33.709Z,53.50
2018-12-24T18:46:02.680Z,53.40
2018-12-24T18:48:31.743Z,53.40
2018-12-24T18:51:00.773Z,53.40
2018-12-24T18:53:29.754Z,53.50
2018-12-24T18:55:58.748Z,53.50
2018-12-24T18:58:27.739Z,53.50
2018-12-24T19:00:56.695Z,53.50
2018-12-24T19:03:25.624Z,53.50
2018-12-24T19:05:54.564Z,53.70
2018-12-24T19:08:23.536Z,53.60
2018-12-24T19:10:52.516Z,53.60
2018-12-24T19:13:21.488Z,53.60
2018-12-24T19:15:50.474Z,53.70
2018-12-24T19:18:19.445Z,53.70
2018-12-24T19:20:48.429Z,53.70
2018-12-24T19:23:17.404Z,53.70
2018-12-24T19:25:46.449Z,53.70
2018-12-24T19:28:15.433Z,53.70
2018-12-24T19:30:44.435Z,53.60
2018-12-24T19:33:13.504Z,53.60
2018-12-24T19:35:42.546Z,53.60
2018-12-24T19:38:11.597Z,53.60
2018-12-24T19:40:40.629Z,53.70
2018-12-24T19:43:09.699Z,53.70
2018-12-24T19:45:38.669Z,53.70
2018-12-24T19:48:07.658Z,53.70
2018-12-24T19:50:36.623Z,53.70
2018-12-24T19:53:05.661Z,53.70
2018-12-24T19:55:34.640Z,53.80
2018-12-24T19:58:03.615Z,53.80
2018-12-24T20:00:32.584Z,53.80
2018-12-24T20:03:01.572Z,53.80
2018-12-24T20:05:30.536Z,53.80
2018-12-24T20:07:59.579Z,53.80
2018-12-24T20:10:28.577Z,53.90
2018-12-24T20:12:57.540Z,54.00
2018-12-24T20:15:26.606Z,53.90
2018-12-24T20:17:58.288Z,53.90
2018-12-24T20:20:26.223Z,53.80
2018-12-24T20:22:55.278Z,53.90
2018-12-24T20:25:24.247Z,54.40
2018-12-24T20:27:53.244Z,53.80
2018-12-24T20:30:22.332Z,53.90
2018-12-24T20:32:51.305Z,53.80
2018-12-24T20:35:20.291Z,53.90
2018-12-24T20:37:49.264Z,53.90
2018-12-24T20:40:18.256Z,53.90
2018-12-24T20:42:47.213Z,53.90
2018-12-24T20:45:16.208Z,53.90
2018-12-24T20:47:45.277Z,53.90
2018-12-24T20:50:14.272Z,54.00
2018-12-24T20:52:43.279Z,54.00
2018-12-24T20:55:12.240Z,54.00
2018-12-24T20:57:41.276Z,54.00
2018-12-24T21:00:10.913Z,54.00
2018-12-24T21:02:39.864Z,54.00
2018-12-24T21:05:08.815Z,54.00
2018-12-24T21:07:37.792Z,54.00
2018-12-24T21:10:06.799Z,53.90
2018-12-24T21:12:35.779Z,54.00
2018-12-24T21:15:05.033Z,54.00
2018-12-24T21:17:34.013Z,54.00
2018-12-24T21:20:03.010Z,54.00
2018-12-24T21:22:32.073Z,54.00
2018-12-24T21:25:01.024Z,54.10
2018-12-24T21:27:30.019Z,53.90
2018-12-24T21:29:58.996Z,53.90
2018-12-24T21:32:27.964Z,53.90
2018-12-24T21:34:56.960Z,54.00
2018-12-24T21:37:25.977Z,53.90
2018-12-24T21:39:55.013Z,54.00
2018-12-24T21:42:25.722Z,54.70
2018-12-24T21:44:54.726Z,54.00
2018-12-24T21:47:23.732Z,54.10
2018-12-24T21:49:52.767Z,54.00
2018-12-24T21:52:21.745Z,54.10
2018-12-24T21:54:50.748Z,54.10
2018-12-24T21:57:19.760Z,54.10
2018-12-24T21:59:48.729Z,54.10
2018-12-24T22:02:17.673Z,54.10
2018-12-24T22:04:46.593Z,54.10
2018-12-24T22:07:15.658Z,54.10
2018-12-24T22:09:44.743Z,54.10
2018-12-24T22:12:13.755Z,54.10
2018-12-24T22:14:42.716Z,54.10
2018-12-24T22:17:11.751Z,54.00
2018-12-24T22:19:40.795Z,54.00
2018-12-24T22:22:09.770Z,54.10
2018-12-24T22:24:38.752Z,54.10
2018-12-24T22:27:07.785Z,54.00
2018-12-24T22:29:36.792Z,54.00
2018-12-24T22:32:05.759Z,54.10
2018-12-24T22:34:34.711Z,54.10
2018-12-24T22:37:03.659Z,54.00
2018-12-24T22:39:32.702Z,54.10
2018-12-24T22:42:01.664Z,54.10
2018-12-24T22:44:30.648Z,54.10
2018-12-24T22:46:59.692Z,54.10
2018-12-24T22:49:28.635Z,54.20
2018-12-24T22:51:57.726Z,54.20
2018-12-24T22:54:26.685Z,54.20
2018-12-24T22:56:55.629Z,54.20
2018-12-24T22:59:24.610Z,54.10
2018-12-24T23:01:53.577Z,54.20
2018-12-24T23:04:22.542Z,54.20
2018-12-24T23:06:51.497Z,54.20
2018-12-24T23:09:20.422Z,54.20
2018-12-24T23:11:49.389Z,54.20
2018-12-24T23:14:18.367Z,54.20
2018-12-24T23:16:47.303Z,54.20
2018-12-24T23:19:16.275Z,54.10
2018-12-24T23:21:45.245Z,54.20
2018-12-24T23:24:14.201Z,54.10
2018-12-24T23:26:43.259Z,54.20
2018-12-24T23:29:12.251Z,54.10
2018-12-24T23:31:41.178Z,54.10
2018-12-24T23:34:10.125Z,54.10
2018-12-24T23:36:39.096Z,54.20
2018-12-24T23:39:08.073Z,54.20
2018-12-24T23:41:37.059Z,54.20
2018-12-24T23:44:05.940Z,54.20
2018-12-24T23:46:34.917Z,54.20
2018-12-24T23:49:03.910Z,54.20
2018-12-24T23:51:32.869Z,54.20
2018-12-24T23:54:01.838Z,54.20
2018-12-24T23:56:30.837Z,54.30
2018-12-24T23:58:59.797Z,54.30
